CDT,Max TemperatureF,Mean TemperatureF,Min TemperatureF,Max Dew PointF,MeanDew PointF,Min DewpointF,Max Humidity, Mean Humidity, Min Humidity, Max Sea Level PressureIn, Mean Sea Level PressureIn, Min Sea Level PressureIn, Max VisibilityMiles, Mean VisibilityMiles, Min VisibilityMiles, Max Wind SpeedMPH, Mean Wind SpeedMPH, Max Gust SpeedMPH,PrecipitationIn, CloudCover, Events, WindDirDegrees
2011-10-1,60,60,57,32,32,32,38,36,34,30.22,30.22,30.22,10,10,10,8,8,,0.00,0,,130
2011-10-2,80,72,64,37,35,34,37,28,18,30.16,30.15,30.13,10,10,10,14,11,20,0.00,0,,151
2011-10-3,73,62,51,39,38,37,58,50,27,30.18,30.17,30.17,10,10,10,18,10,23,0.00,0,,155
2011-10-4,,,,,,,,,,,,,,,,,,,,,,
2011-10-5,82,74,66,43,41,39,43,29,21,30.11,30.03,30.00,10,10,7,26,19,33,0.00,1,,168
2011-10-6,82,72,62,48,43,39,49,37,25,30.01,29.95,29.87,10,10,8,30,16,40,0.00,2,,160
2011-10-7,78,73,68,59,52,43,60,50,38,30.03,29.97,29.91,10,10,3,25,21,33,0.00,5,,169
2011-10-8,,,,,,,,,,,,,,,,,,,,,,
2011-10-9,62,58,55,57,55,54,94,85,77,30.10,30.08,30.07,10,9,2,15,9,20,0.74,8,,210
2011-10-10,68,62,55,55,54,52,94,83,60,30.11,30.07,30.00,10,9,2,12,5,,0.12,7,,219
2011-10-11,73,68,62,54,53,50,72,60,44,29.86,29.81,29.80,10,10,10,18,14,26,0.00,3,,170
2011-10-12,64,60,55,55,54,54,94,80,68,29.80,29.77,29.76,10,10,7,15,10,,0.15,4,Thunderstorm,213
2011-10-13,,,,,,,,,,,,,,,,,,,,,,
2011-10-14,68,60,51,37,35,32,54,37,26,30.10,30.05,30.01,10,10,10,13,8,21,0.00,0,,41
2011-10-15,77,62,46,50,38,32,66,45,27,30.14,30.06,29.92,10,10,10,17,7,22,0.00,0,,151
2011-10-16,69,61,50,50,44,36,77,53,33,30.04,29.97,29.87,10,10,10,28,15,33,0.00,0,,7
2011-10-17,60,52,44,37,34,27,76,54,34,30.10,29.97,29.86,10,10,10,24,10,30,0.01,4,,47
2011-10-18,55,47,39,39,32,21,87,59,28,30.13,30.10,30.08,10,10,10,26,16,36,0.04,2,,344
2011-10-19,53,44,35,28,24,19,75,50,30,30.15,30.09,30.07,10,10,10,22,10,33,0.00,0,,353
2011-10-20,57,42,28,28,25,19,74,50,31,30.15,30.09,30.05,10,10,10,7,4,,0.00,0,,21
2011-10-21,73,54,35,37,34,27,75,46,27,30.17,30.12,30.08,10,10,6,16,9,21,0.00,0,,193
2011-10-22,69,56,44,48,41,36,71,55,40,30.12,30.08,29.99,10,10,10,10,5,,0.00,0,,162
2011-10-23,78,61,44,48,42,36,87,58,24,30.10,30.04,29.99,10,10,6,15,4,20,0.00,0,,277
2011-10-24,80,62,46,48,40,34,87,55,28,30.16,30.12,30.07,10,9,3,17,6,23,0.00,0,,162
2011-10-25,,,,,,,,,,,,,,,,,,,,,,
2011-10-26,46,46,46,34,34,34,62,62,62,30.14,30.12,30.09,10,10,10,17,17,25,0.00,8,,355
2011-10-27,53,44,35,34,30,25,81,58,38,30.22,30.17,30.13,10,10,9,16,11,23,0.00,1,,6
2011-10-28,60,46,33,30,26,21,70,49,23,30.29,30.24,30.21,10,10,10,14,4,17,0.00,0,,310
2011-10-29,66,49,32,30,27,23,70,37,21,30.15,30.03,29.94,10,10,10,28,15,34,0.00,0,,200
2011-10-30,60,50,41,34,29,23,66,43,23,30.18,30.08,29.94,10,10,10,23,15,30,0.00,0,,301
2011-10-31,71,64,57,43,38,36,59,38,28,30.09,30.00,29.97,10,10,10,18,13,28,0.00,0,,193